Latest Weather Observations for Oodnadatta

IDS60801

Issued at 5:01 am CDT Friday 24 February 2017 (issued every 30 minutes, with the page automatically refreshed every 10 minutes)

About weather observations | Map of weather stations | Latest weather observations for SA | Other Formats
Station Details ID: 017043 Name: OODNADATTA AIRPORT Lat: -27.56 Lon: 135.45 Height: 116.5 m
Data from the previous 72 hours. | See also: Recent months at Oodnadatta
Date/Time
CDT
Temp
°C
App
Temp
°C
Dew
Point
°C
Rel
Hum
%
Delta-T
°C
Wind Press
QNH
hPa
Press
MSL
hPa
Rain since
9am
mm
Dir  Spd
km/h
Gust
km/h
Spd
kts
Gust
kts
24/05:00am 22.1 17.5 5.5 34 8.3 S 19 22 10 12 1018.9 1018.2 0.0
24/04:30am 22.4 17.5 4.9 32 8.7 S 20 24 11 13 1018.7 1018.0 0.0
24/04:00am 22.6 17.8 4.6 31 8.9 S 19 24 10 13 1018.7 1018.0 0.0
24/03:30am 22.6 18.5 4.2 30 9.0 S 15 19 8 10 1018.7 1018.0 0.0
24/03:00am 23.2 19.1 4.2 29 9.4 SSE 15 19 8 10 1018.9 1018.2 0.0
24/02:30am 23.9 19.0 4.3 28 9.7 SSE 19 22 10 12 1019.0 1018.3 0.0
24/02:00am 24.5 19.4 4.3 27 10.1 SSE 20 26 11 14 1019.0 1018.3 0.0
24/01:30am 25.3 19.5 4.4 26 10.5 S 24 32 13 17 1019.1 1018.4 0.0
24/01:00am 25.5 20.0 4.0 25 10.7 S 22 26 12 14 1019.0 1018.3 0.0
24/12:30am 25.9 20.5 4.4 25 10.8 SSW 22 26 12 14 1019.2 1018.5 0.0
24/12:00am 26.4 21.5 4.2 24 11.2 SSW 19 24 10 13 1019.3 1018.6 0.0
 
Date/Time
CDT
Temp
°C
App
Temp
°C
Dew
Point
°C
Rel
Hum
%
Delta-T
°C
Wind Press
QNH
hPa
Press
MSL
hPa
Rain since
9am
mm
Dir  Spd
km/h
Gust
km/h
Spd
kts
Gust
kts
23/11:30pm 27.6 22.2 4.6 23 11.7 S 22 28 12 15 1019.3 1018.6 0.0
23/11:00pm 27.8 23.0 4.8 23 11.8 SSE 19 22 10 12 1019.2 1018.5 0.0
23/10:30pm 28.3 24.0 5.2 23 12.0 SSE 17 20 9 11 1018.9 1018.2 0.0
23/10:00pm 29.1 24.4 5.9 23 12.3 SSE 20 24 11 13 1018.5 1017.8 0.0
23/09:30pm 29.7 24.9 5.7 22 12.7 SSE 20 28 11 15 1018.4 1017.7 0.0
23/09:00pm 30.5 25.5 6.4 22 12.9 SSE 22 32 12 17 1018.0 1017.3 0.0
23/08:30pm 31.2 25.0 6.3 21 13.4 SSE 28 33 15 18 1017.4 1016.7 0.0
23/08:00pm 31.8 25.4 6.8 21 13.6 SSE 30 35 16 19 1017.0 1016.3 0.0
23/07:30pm 32.7 26.3 6.8 20 14.1 SSE 30 37 16 20 1016.8 1016.0 0.0
23/07:00pm 33.0 26.2 7.1 20 14.2 SSE 32 43 17 23 1016.4 1015.6 0.0
23/06:30pm 33.1 26.9 7.9 21 14.0 SSE 30 43 16 23 1016.3 1015.5 0.0
23/06:00pm 33.3 27.1 8.0 21 14.1 SSE 30 39 16 21 1016.3 1015.5 0.0
23/05:30pm 33.6 27.9 8.3 21 14.2 SSE 28 43 15 23 1016.3 1015.5 0.0
23/05:00pm 33.0 27.2 7.8 21 14.0 SSE 28 39 15 21 1016.4 1015.6 0.0
23/04:30pm 33.6 27.3 7.6 20 14.4 S 30 43 16 23 1016.7 1015.9 0.0
23/04:00pm 32.9 27.4 7.7 21 14.0 S 26 39 14 21 1016.9 1016.1 0.0
23/03:30pm 32.9 27.0 7.7 21 14.0 SSE 28 46 15 25 1017.2 1016.5 0.0
23/03:26pm 32.6 26.7 7.4 21 13.9 SSE 28 46 15 25 1017.2 1016.5 0.0
23/03:00pm 32.2 26.6 7.1 21 13.7 SSE 26 35 14 19 1017.6 1016.9 0.0
23/02:30pm 31.3 25.7 7.1 22 13.2 SSE 26 39 14 21 1018.0 1017.3 0.0
23/02:00pm 31.5 26.5 7.9 23 13.1 SSE 24 39 13 21 1018.5 1017.8 0.0
23/01:30pm 29.9 24.7 7.2 24 12.3 SSE 24 33 13 18 1018.9 1018.2 0.0
23/01:00pm 29.0 24.1 7.0 25 11.8 SE 22 37 12 20 1019.5 1018.7 0.0
23/12:30pm 28.4 23.7 7.6 27 11.2 SSE 22 35 12 19 1019.6 1018.8 0.0
23/12:00pm 27.9 22.5 8.2 29 10.7 SSE 26 37 14 20 1020.0 1019.2 0.0
23/11:30am 27.0 21.3 8.4 31 10.1 SSE 28 37 15 20 1020.0 1019.2 0.0
23/11:00am 26.2 19.7 8.2 32 9.7 SSE 32 43 17 23 1019.7 1018.9 0.0
23/10:30am 24.7 18.2 8.2 35 8.8 SSE 32 41 17 22 1019.7 1018.9 0.0
23/10:00am 23.6 16.8 7.7 36 8.4 S 33 41 18 22 1019.2 1018.5 0.0
23/09:30am 22.7 15.5 7.7 38 7.9 S 35 43 19 23 1018.8 1018.1 0.0
23/09:00am 21.7 14.9 7.9 41 7.2 S 33 44 18 24 1018.3 1017.6 0.0
23/08:30am 21.2 14.8 8.5 44 6.7 S 32 39 17 21 1018.0 1017.3 0.0
23/08:00am 21.0 15.2 8.0 43 6.8 S 28 35 15 19 1017.8 1017.1 0.0
23/07:30am 20.6 14.3 7.6 43 6.7 S 30 35 16 19 1017.2 1016.5 0.0
23/07:00am 20.9 14.8 6.4 39 7.4 S 28 33 15 18 1016.9 1016.1 0.0
23/06:30am 21.6 15.0 5.9 36 7.9 S 30 37 16 20 1016.5 1015.7 0.0
23/06:00am 22.4 15.3 5.4 33 8.5 S 32 41 17 22 1016.1 1015.3 0.0
23/05:30am 23.1 16.2 4.6 30 9.2 S 30 37 16 20 1015.5 1014.7 0.0
23/05:00am 23.6 16.6 4.0 28 9.7 S 30 41 16 22 1015.1 1014.3 0.0
23/04:30am 24.4 18.7 4.7 28 9.9 S 24 33 13 18 1014.8 1014.0 0.0
23/04:00am 24.8 19.6 5.6 29 9.8 SSE 22 28 12 15 1014.4 1013.6 0.0
23/03:30am 25.4 20.2 5.6 28 10.2 SSE 22 28 12 15 1014.3 1013.5 0.0
23/03:00am 26.1 20.6 5.7 27 10.5 SSE 24 30 13 16 1014.2 1013.4 0.0
23/02:30am 26.6 21.4 5.5 26 10.9 SE 22 28 12 15 1014.3 1013.5 0.0
23/02:00am 27.1 21.2 6.0 26 11.0 SSE 26 32 14 17 1014.3 1013.5 0.0
23/01:30am 27.8 22.1 6.6 26 11.2 SSE 26 33 14 18 1014.3 1013.5 0.0
23/01:00am 28.4 23.3 7.6 27 11.3 SSE 24 30 13 16 1014.3 1013.5 0.0
23/12:30am 28.8 23.0 7.9 27 11.4 S 28 35 15 19 1014.2 1013.4 0.0
23/12:00am 29.3 23.6 8.4 27 11.5 S 28 37 15 20 1014.1 1013.3 0.0
 
Date/Time
CDT
Temp
°C
App
Temp
°C
Dew
Point
°C
Rel
Hum
%
Delta-T
°C
Wind Press
QNH
hPa
Press
MSL
hPa
Rain since
9am
mm
Dir  Spd
km/h
Gust
km/h
Spd
kts
Gust
kts
22/11:30pm 29.7 23.6 8.2 26 11.8 SSW 30 35 16 19 1014.1 1013.3 0.0
22/11:00pm 30.1 25.2 8.5 26 12.0 SSW 24 32 13 17 1014.0 1013.2 0.0
22/10:30pm 30.8 26.3 8.5 25 12.4 S 22 28 12 15 1013.8 1013.0 0.0
22/10:00pm 31.4 26.5 8.4 24 12.8 SSW 24 28 13 15 1013.5 1012.7 0.0
22/09:30pm 31.9 27.5 7.5 22 13.4 SSW 20 26 11 14 1012.9 1012.1 0.0
22/09:00pm 32.7 28.5 7.5 21 13.9 SSW 19 22 10 12 1012.3 1011.5 0.0
22/08:30pm 33.5 29.1 7.5 20 14.4 SSW 20 26 11 14 1011.7 1010.9 0.0
22/08:00pm 34.5 29.4 7.5 19 15.1 SSW 24 32 13 17 1011.1 1010.3 0.0
22/07:30pm 35.4 29.9 7.5 18 15.6 SSW 26 32 14 17 1010.6 1009.8 0.0
22/07:00pm 36.6 31.1 7.6 17 16.4 SSW 26 33 14 18 1010.2 1009.5 0.0
22/06:30pm 37.3 31.9 6.3 15 17.2 SW 24 32 13 17 1010.0 1009.3 0.0
22/06:00pm 38.2 31.8 5.0 13 18.2 SW 28 41 15 22 1009.8 1009.1 0.0
22/05:30pm 38.7 33.0 3.0 11 19.0 SW 22 32 12 17 1009.7 1009.0 0.0
22/05:00pm 38.7 33.2 1.6 10 19.3 SW 20 35 11 19 1009.5 1008.8 0.0
22/04:30pm 38.9 33.1 -1.3 8 20.1 WSW 19 37 10 20 1009.5 1008.8 0.0
22/04:00pm 38.3 32.5 -1.7 8 19.7 W 19 28 10 15 1009.8 1009.1 0.0
22/03:30pm 38.3 33.2 -1.7 8 19.8 W 15 28 8 15 1010.1 1009.4 0.0
22/03:00pm 38.5 31.7 -1.6 8 19.9 W 24 35 13 19 1010.5 1009.7 0.0
22/02:30pm 37.8 31.3 -2.1 8 19.5 W 22 33 12 18 1010.7 1009.9 0.0
22/02:00pm 38.0 32.0 -1.9 8 19.6 NW 20 30 11 16 1011.1 1010.3 0.0
22/01:30pm 36.8 30.6 -2.8 8 19.0 WNW 20 32 11 17 1011.5 1010.7 0.0
22/01:00pm 36.5 30.5 -1.4 9 18.6 NW 20 32 11 17 1011.8 1011.0 0.0
22/12:30pm 36.9 30.6 -1.1 9 18.8 NW 22 39 12 21 1012.1 1011.3 0.0
22/12:00pm 35.7 28.5 -2.0 9 18.2 NNW 26 39 14 21 1012.1 1011.3 0.0
22/11:30am 35.4 27.8 -2.3 9 18.1 N 28 39 15 21 1012.2 1011.4 0.0
22/11:00am 33.8 26.4 -0.7 11 16.8 N 28 35 15 19 1012.1 1011.3 0.0
22/10:30am 32.5 25.5 -0.5 12 16.0 N 26 33 14 18 1012.0 1011.2 0.0
22/10:00am 31.1 23.7 -0.5 13 15.2 NNE 28 35 15 19 1011.8 1011.0 0.0
22/09:30am 29.1 22.5 -0.1 15 13.9 NNE 24 33 13 18 1011.8 1011.0 0.0
22/09:00am 27.2 20.7 0.1 17 12.8 NNE 24 32 13 17 1011.6 1010.8 0.0
22/08:30am 25.5 19.6 -0.5 18 12.0 NNE 20 28 11 15 1011.5 1010.7 0.0
22/08:00am 24.1 18.2 -0.9 19 11.3 NNE 20 28 11 15 1011.1 1010.3 0.0
22/07:30am 23.3 17.6 -0.9 20 10.9 NNE 19 22 10 12 1010.8 1010.0 0.0
22/07:00am 22.9 17.0 -0.6 21 10.6 NNE 20 24 11 13 1010.3 1009.6 0.0
22/06:30am 22.6 16.8 -1.5 20 10.6 NE 19 22 10 12 1010.2 1009.5 0.0
22/06:00am 23.2 17.2 -1.7 19 11.0 NE 20 24 11 13 1010.0 1009.3 0.0
22/05:30am 23.2 17.2 -1.7 19 11.0 NE 20 24 11 13 1010.0 1009.3 0.0
22/05:00am 23.9 17.6 -1.1 19 11.2 NE 22 26 12 14 1010.1 1009.4 0.0
22/04:30am 22.5 16.7 -1.6 20 10.6 NE 19 20 10 11 1010.3 1009.6 0.0
22/04:00am 22.7 16.9 -1.4 20 10.7 NE 19 20 10 11 1010.1 1009.4 0.0
22/03:30am 22.8 17.0 -1.3 20 10.7 NE 19 20 10 11 1010.3 1009.6 0.0
22/03:00am 23.2 17.4 -1.7 19 11.0 NE 19 22 10 12 1010.8 1010.0 0.0
22/02:30am 24.1 18.7 -1.7 18 11.5 NNE 17 20 9 11 1011.1 1010.3 0.0
22/02:00am 24.7 18.7 -1.2 18 11.7 NE 20 22 11 12 1011.3 1010.5 0.0
22/01:30am 25.1 18.7 -1.6 17 12.0 NE 22 26 12 14 1011.6 1010.8 0.0
22/01:00am 25.1 19.2 -0.9 18 11.8 NE 20 24 11 13 1011.9 1011.1 0.0
22/12:30am 24.8 19.6 0.3 20 11.4 NE 17 19 9 10 1012.1 1011.3 0.0
22/12:00am 25.2 20.0 0.0 19 11.7 NE 17 19 9 10 1012.2 1011.4 0.0
 
Date/Time
CDT
Temp
°C
App
Temp
°C
Dew
Point
°C
Rel
Hum
%
Delta-T
°C
Wind Press
QNH
hPa
Press
MSL
hPa
Rain since
9am
mm
Dir  Spd
km/h
Gust
km/h
Spd
kts
Gust
kts
21/11:30pm 25.9 21.0 -0.2 18 12.1 NE 15 19 8 10 1012.2 1011.4 0.0
21/11:00pm 27.2 22.0 0.1 17 12.8 NE 17 19 9 10 1012.2 1011.4 0.0
21/10:30pm 27.4 22.1 -0.6 16 13.1 NE 17 17 9 9 1012.2 1011.4 0.0
21/10:00pm 28.3 22.9 -1.7 14 13.8 NE 17 20 9 11 1011.9 1011.1 0.0
21/09:30pm 29.9 24.7 -2.6 12 14.9 NNE 15 17 8 9 1011.9 1011.1 0.0
21/09:00pm 30.6 25.7 -3.2 11 15.4 NNE 13 15 7 8 1011.7 1010.9 0.0
21/08:30pm 31.6 26.7 -3.7 10 16.1 NE 13 17 7 9 1011.3 1010.5 0.0
21/08:00pm 32.8 26.8 -2.8 10 16.6 NNE 19 24 10 13 1010.8 1010.0 0.0
21/07:30pm 33.6 28.5 -2.2 10 17.0 NNE 15 20 8 11 1010.6 1009.8 0.0
21/07:00pm 34.4 29.0 -1.6 10 17.3 NNE 17 22 9 12 1010.3 1009.6 0.0
21/06:30pm 34.2 28.8 -1.7 10 17.3 NNE 17 28 9 15 1010.3 1009.6 0.0
21/06:00pm 34.9 29.3 -2.6 9 17.9 NNE 17 26 9 14 1010.3 1009.6 0.0
21/05:30pm 35.0 31.0 -2.6 9 17.9 NNE 9 24 5 13 1010.5 1009.7 0.0
21/05:00pm 34.5 28.5 -2.9 9 17.6 N 19 30 10 16 1010.7 1009.9 0.0
21/04:30pm 34.0 29.3 -1.9 10 17.2 NE 13 22 7 12 1011.1 1010.3 0.0
21/04:00pm 33.6 28.8 -2.2 10 17.0 NNW 13 26 7 14 1011.5 1010.7 0.0
21/03:30pm 34.1 28.3 -1.8 10 17.2 N 19 32 10 17 1012.0 1011.2 0.0
21/03:00pm 33.5 28.4 -2.3 10 16.9 N 15 28 8 15 1012.7 1011.9 0.0
21/02:30pm 33.1 27.5 -0.1 12 16.2 NNW 19 30 10 16 1013.4 1012.6 0.0
21/02:00pm 33.2 29.3 1.1 13 16.0 N 11 20 6 11 1014.1 1013.3 0.0
21/01:30pm 32.6 27.7 1.7 14 15.5 NNE 17 26 9 14 1014.6 1013.8 0.0
21/01:00pm 31.5 26.6 1.8 15 14.8 NNE 17 30 9 16 1015.1 1014.3 0.0
21/12:30pm 31.1 26.1 1.4 15 14.7 N 17 30 9 16 1015.6 1014.8 0.0
21/12:00pm 30.2 25.4 2.5 17 13.9 NE 17 28 9 15 1016.2 1015.4 0.0
21/11:30am 30.0 24.9 3.1 18 13.6 NNE 19 32 10 17 1016.7 1015.9 0.0
21/11:00am 29.1 22.7 3.1 19 13.1 NNE 26 32 14 17 1016.8 1016.0 0.0
21/10:30am 28.5 22.5 3.4 20 12.6 NE 24 32 13 17 1016.9 1016.1 0.0
21/10:00am 27.6 21.3 4.0 22 12.0 ENE 26 32 14 17 1016.9 1016.1 0.0
21/09:30am 26.5 21.4 4.3 24 11.2 E 20 24 11 13 1016.7 1015.9 0.0
21/09:00am 24.0 19.9 4.4 28 9.8 E 15 19 8 10 1016.6 1015.8 0.0
21/08:30am 20.6 18.1 4.6 35 7.8 ESE 7 9 4 5 1016.3 1015.5 0.0
21/08:00am 17.2 15.7 3.1 39 6.5 CALM 0 0 0 0 1016.2 1015.4 0.0
21/07:30am 14.7 12.8 2.6 44 5.4 ESE 2 11 1 6 1015.6 1014.8 0.0
21/07:00am 15.4 13.9 2.9 43 5.7 CALM 0 0 0 0 1015.2 1014.4 0.0
21/06:30am 16.3 14.1 3.4 42 6.0 SE 4 7 2 4 1015.1 1014.3 0.0
21/06:00am 16.4 13.7 2.8 40 6.2 ENE 6 7 3 4 1014.7 1013.9 0.0
21/05:30am 17.0 15.5 3.0 39 6.4 CALM 0 0 0 0 1014.6 1013.8 0.0

Other Formats:

Comma delimited format used in spreadsheet applications
http://www.bom.gov.au/fwo/IDS60801/IDS60801.94476.axf

JavaScript Object Notation format (JSON) in row-major order
http://www.bom.gov.au/fwo/IDS60801/IDS60801.94476.json